Airfield :
LOGIN :

Register | Disclaimer

   EN    FR    IT 

 










Legend :    VFR   Marginal VFR   IFR   Intensive IFR   Very Intensive IFR
Visi :
Ceiling :
>= 8 km
>= 3000ft
5 to 8 km
1000 to 3000 ft
1500m to 5 km
500 to 1000 ft
800 to 1500m
200 to 500 ft
< 800m
< 200 ft
Symbols :   Thunderstorms  Fog  Heavy snow  Heavy precipitations  Wind > 20 kt
SIGMETs :     Misc.  Thunderstorms  Icing  Turbulence  Mountain Waves  Volcanic Ashes






- Airport Elevation : 102 ft
- IATA code : EXT


EGTE - Exeter

CURRENT METAR :
  • 221020Z 28009KT 240V320 9999 SCT035 18/10 Q1014

EXPIRED METARs :
  • 220950Z 28011KT 240V320 9999 SCT030 19/10 Q1014
  • 220920Z 26008KT 230V300 9999 SCT020 16/11 Q1014
  • 220850Z 29007KT 230V340 9999 SCT018 17/12 Q1014
  • 220820Z 29006KT 250V340 9999 SCT018 16/12 Q1014
  • 220750Z 29007KT 270V340 9999 FEW010 SCT018 16/12 Q1014
  • 220720Z 30006KT 260V330 9999 FEW010 SCT018 15/12 Q1013
  • 220650Z 30006KT 260V330 9999 FEW010 15/12 Q1013
  • 220620Z 30007KT 270V350 9999 FEW010 15/12 Q1013
  • 220550Z 27004KT 9999 SCT010 13/13 Q1013
  • 220520Z 27003KT 9999 FEW009 SCT013 13/12 Q1012

TAF TAF EGTE
Valid from the 22 at 09:00 until the 22 at 18:00 UTC


220759Z 2209/2218 29008KT 9999 SCT020



MET'MAP, your aeronautical weather chart ! - Copyright ORBIFLY December 2007 - Disclaimer

ORBIFLY MET'MAP TEAM :

Programming & Development : Alexandra Zaïnal
Original concept : Baudouin d'Aumeries
Technical & hardware support : Manuel Goepfert
Assistance : Marc-Olivier Méhu




SOURCES & CREDITS :

   NOAA